Time;durP1;ratioP1;P1;durP2;ratioP2;P2;SDS_P1;SDS_P2;PMS_P1;PMS_P2;Temp;Humidity;BMP_temperature;BMP_pressure;BME280_temperature;BME280_humidity;BME280_pressure;Samples;Min_cycle;Max_cycle;Signal;HPM_P1;HPM_P2
2024/03/06 00:01:38;;;;;;;23.08;17.85;;;;;;;4.62;100.00;98675.28;15324179;19;20035;-77
2024/03/06 00:07:04;;;;;;;22.38;17.75;;;;;;;4.59;100.00;98672.84;15319348;19;20014;-76
2024/03/06 00:12:31;;;;;;;18.42;16.08;;;;;;;4.55;100.00;98675.88;15299293;19;20014;-76
2024/03/06 00:17:56;;;;;;;19.10;15.57;;;;;;;4.51;100.00;98677.91;15299167;19;20021;-76
2024/03/06 00:23:20;;;;;;;18.13;14.65;;;;;;;4.50;100.00;98684.22;15299498;19;20011;-75
2024/03/06 00:28:47;;;;;;;19.58;13.98;;;;;;;4.48;100.00;98684.31;15307587;19;20074;-76
2024/03/06 00:34:13;;;;;;;19.73;14.70;;;;;;;4.46;100.00;98696.06;15299221;19;20113;-76
2024/03/06 00:39:45;;;;;;;16.10;13.68;;;;;;;4.44;100.00;98700.66;15296751;19;20091;-76
2024/03/06 00:45:14;;;;;;;16.95;13.23;;;;;;;4.41;100.00;98698.25;15303819;19;20042;-76
2024/03/06 00:50:39;;;;;;;16.80;13.57;;;;;;;4.39;100.00;98711.69;15300815;19;20021;-75
2024/03/06 00:56:05;;;;;;;16.20;12.85;;;;;;;4.34;100.00;98713.88;15303554;19;20038;-75
2024/03/06 01:01:33;;;;;;;16.33;12.60;;;;;;;4.36;100.00;98722.59;15294711;19;20078;-76
2024/03/06 01:06:58;;;;;;;18.70;12.52;;;;;;;4.34;100.00;98727.22;15292089;19;20014;-75
2024/03/06 01:12:23;;;;;;;18.13;11.85;;;;;;;4.31;100.00;98722.94;15291083;19;20014;-75
2024/03/06 01:17:50;;;;;;;15.38;11.77;;;;;;;4.33;100.00;98736.19;15291263;19;20019;-75
2024/03/06 01:23:15;;;;;;;14.57;11.82;;;;;;;4.36;100.00;98737.75;15291174;19;20020;-75
2024/03/06 01:28:42;;;;;;;15.57;11.35;;;;;;;4.39;100.00;98741.03;15300070;19;20014;-75
2024/03/06 01:34:09;;;;;;;14.73;11.18;;;;;;;4.40;100.00;98740.06;15292997;19;20025;-75
2024/03/06 01:39:40;;;;;;;18.02;10.98;;;;;;;4.41;100.00;98755.13;15293439;19;20485;-76
2024/03/06 01:45:06;;;;;;;16.63;10.57;;;;;;;4.42;100.00;98759.50;15344052;19;20383;-76
2024/03/06 01:50:34;;;;;;;13.80;10.20;;;;;;;4.42;100.00;98758.63;15289007;19;20318;-76
2024/03/06 01:55:59;;;;;;;16.40;10.73;;;;;;;4.42;100.00;98758.63;15294822;19;20006;-76
2024/03/06 02:01:26;;;;;;;14.40;10.73;;;;;;;4.43;100.00;98750.53;15292063;19;20019;-77
2024/03/06 02:06:53;;;;;;;11.50;10.13;;;;;;;4.42;100.00;98764.81;15290460;19;20564;-76
2024/03/06 02:12:18;;;;;;;14.18;11.23;;;;;;;4.49;100.00;98759.88;15289258;19;20819;-76
2024/03/06 02:17:43;;;;;;;12.63;10.70;;;;;;;4.41;100.00;98764.94;15288461;19;20020;-77
2024/03/06 02:23:11;;;;;;;21.02;11.40;;;;;;;4.36;100.00;98764.44;15041171;19;5000813;-77
2024/03/06 02:28:36;;;;;;;17.00;11.15;;;;;;;4.38;100.00;98775.84;15304623;19;20074;-75
2024/03/06 02:34:02;;;;;;;15.15;10.77;;;;;;;4.35;100.00;98774.22;15294834;19;20345;-77
2024/03/06 02:39:36;;;;;;;13.13;10.65;;;;;;;4.30;100.00;98777.25;15290080;19;20015;-77
2024/03/06 02:45:01;;;;;;;15.15;11.00;;;;;;;4.31;100.00;98778.09;15292881;19;20014;-76
2024/03/06 02:50:25;;;;;;;14.32;11.10;;;;;;;4.27;100.00;98782.81;15291797;19;20022;-75
2024/03/06 02:55:53;;;;;;;19.30;12.18;;;;;;;4.26;100.00;98780.25;15286880;19;20428;-76
2024/03/06 03:01:18;;;;;;;14.57;11.82;;;;;;;4.19;100.00;98773.66;15287214;19;20014;-75
2024/03/06 03:06:43;;;;;;;16.50;11.68;;;;;;;4.15;100.00;98773.88;15291971;19;20011;-76
2024/03/06 03:12:11;;;;;;;14.68;11.55;;;;;;;4.16;100.00;98774.75;15285688;19;20013;-76
2024/03/06 03:17:36;;;;;;;16.02;12.10;;;;;;;4.20;100.00;98781.53;15287298;19;20503;-75
2024/03/06 03:23:01;;;;;;;14.82;11.95;;;;;;;4.23;100.00;98778.66;15293215;19;20086;-76
2024/03/06 03:28:29;;;;;;;18.05;11.63;;;;;;;4.20;100.00;98783.38;15291313;19;20014;-76
2024/03/06 03:33:54;;;;;;;16.48;12.05;;;;;;;4.18;100.00;98788.81;15287665;19;20011;-76
2024/03/06 03:39:27;;;;;;;14.10;12.23;;;;;;;4.12;100.00;98789.25;15286066;19;20764;-77
2024/03/06 03:44:54;;;;;;;16.60;13.07;;;;;;;4.12;100.00;98791.94;15294686;19;20031;-77
2024/03/06 03:50:19;;;;;;;17.75;12.90;;;;;;;4.05;100.00;98794.19;15287785;19;20081;-76
2024/03/06 03:55:44;;;;;;;15.80;13.75;;;;;;;4.02;100.00;98802.41;15284276;19;20029;-76
2024/03/06 04:01:11;;;;;;;17.52;14.10;;;;;;;3.98;100.00;98800.94;15280966;19;20011;-75
2024/03/06 04:06:36;;;;;;;18.70;14.27;;;;;;;3.91;100.00;98808.50;15285629;19;20014;-76
2024/03/06 04:12:00;;;;;;;17.35;13.88;;;;;;;3.84;100.00;98812.56;15281581;19;20600;-76
2024/03/06 04:17:27;;;;;;;18.05;14.27;;;;;;;3.80;100.00;98825.25;14773469;19;10000588;-76
2024/03/06 04:22:53;;;;;;;17.65;14.52;;;;;;;3.79;100.00;98818.22;15284102;19;20029;-76
2024/03/06 04:28:24;;;;;;;19.08;14.45;;;;;;;3.74;100.00;98822.16;15289542;19;20014;-76
2024/03/06 04:33:51;;;;;;;18.67;15.02;;;;;;;3.70;100.00;98827.69;15279716;19;20093;-75
2024/03/06 04:39:23;;;;;;;18.98;15.77;;;;;;;3.66;100.00;98842.22;15283383;19;20022;-76
2024/03/06 04:44:48;;;;;;;17.08;15.00;;;;;;;3.63;100.00;98842.44;15344624;19;20041;-77
2024/03/06 04:50:18;;;;;;;16.80;14.60;;;;;;;3.58;100.00;98844.56;15315114;19;20018;-77
2024/03/06 04:55:43;;;;;;;21.52;15.23;;;;;;;3.52;100.00;98856.50;15304109;19;20018;-78
2024/03/06 05:01:07;;;;;;;20.02;15.07;;;;;;;3.44;100.00;98850.84;15334669;19;20006;-77
2024/03/06 05:06:34;;;;;;;18.67;14.70;;;;;;;3.38;100.00;98844.13;15323537;19;20018;-77
2024/03/06 05:12:14;;;;;;;20.02;15.27;;;;;;;3.36;100.00;98854.03;15302380;19;20057;-78
2024/03/06 05:17:55;;;;;;;19.83;15.18;;;;;;;3.34;100.00;98866.63;15301590;19;20390;-77
2024/03/06 05:23:37;;;;;;;18.30;15.10;;;;;;;3.34;100.00;98863.09;15292960;19;20097;-77
2024/03/06 05:29:16;;;;;;;18.70;14.48;;;;;;;3.30;100.00;98870.44;15289875;19;20018;-76
2024/03/06 05:34:54;;;;;;;23.95;16.13;;;;;;;3.29;100.00;98881.19;15287541;19;20019;-76
2024/03/06 05:40:45;;;;;;;18.42;15.57;;;;;;;3.25;100.00;98880.53;15298254;19;20024;-76
2024/03/06 05:46:24;;;;;;;19.53;14.83;;;;;;;3.23;100.00;98888.63;15300761;19;20015;-77
2024/03/06 05:52:03;;;;;;;20.70;15.15;;;;;;;3.17;100.00;98898.84;15302217;19;20297;-77
2024/03/06 05:57:47;;;;;;;21.77;16.27;;;;;;;3.12;100.00;98900.97;15294012;19;20046;-77
2024/03/06 06:03:30;;;;;;;18.63;15.45;;;;;;;3.11;100.00;98912.56;15297158;19;20382;-77
2024/03/06 06:08:56;;;;;;;19.27;15.90;;;;;;;3.10;100.00;98924.19;15292222;19;20055;-78
2024/03/06 06:14:23;;;;;;;21.25;15.50;;;;;;;3.13;100.00;98913.28;15294829;19;20021;-77
2024/03/06 06:19:48;;;;;;;18.33;14.85;;;;;;;3.15;100.00;98928.25;15298573;19;20013;-77
2024/03/06 06:25:13;;;;;;;18.95;15.13;;;;;;;3.17;100.00;98936.13;15294545;19;20508;-75
2024/03/06 06:30:41;;;;;;;18.40;15.05;;;;;;;3.17;100.00;98936.13;15293122;19;20030;-78
2024/03/06 06:36:05;;;;;;;21.23;15.50;;;;;;;3.26;100.00;98946.16;15298357;19;20014;-78
2024/03/06 06:41:36;;;;;;;21.25;15.07;;;;;;;3.34;100.00;98954.50;15295273;19;20011;-78
2024/03/06 06:47:04;;;;;;;18.33;15.35;;;;;;;3.34;100.00;98954.50;15297052;19;20010;-77
2024/03/06 06:52:31;;;;;;;18.92;15.50;;;;;;;3.33;100.00;98952.78;15306861;19;20015;-79
2024/03/06 06:57:56;;;;;;;23.85;16.35;;;;;;;3.23;100.00;98963.19;15301090;19;20382;-78
2024/03/06 07:03:29;;;;;;;20.50;16.30;;;;;;;3.14;100.00;98979.78;15305657;19;20010;-79
2024/03/06 07:08:54;;;;;;;23.27;18.23;;;;;;;3.01;100.00;98977.03;15305470;19;20038;-78
2024/03/06 07:14:18;;;;;;;22.90;18.38;;;;;;;2.93;100.00;98987.34;15300971;19;20029;-78
2024/03/06 07:19:45;;;;;;;24.15;19.05;;;;;;;2.92;100.00;98993.63;15296771;19;20417;-78
2024/03/06 07:25:10;;;;;;;27.10;19.95;;;;;;;2.95;100.00;99001.41;15290883;19;20014;-79
2024/03/06 07:30:35;;;;;;;19.98;17.17;;;;;;;2.98;100.00;99006.53;15287335;19;20018;-79
2024/03/06 07:36:04;;;;;;;20.75;18.27;;;;;;;2.99;100.00;99010.91;15299794;19;20081;-79
2024/03/06 07:41:35;;;;;;;23.95;17.92;;;;;;;3.03;100.00;99012.41;15326107;19;20467;-48
2024/03/06 07:47:00;;;;;;;24.35;18.73;;;;;;;3.07;100.00;99027.25;15280935;19;20050;-47
2024/03/06 07:52:27;;;;;;;23.30;18.65;;;;;;;3.12;100.00;99034.09;15282884;19;20743;-49
2024/03/06 07:57:52;;;;;;;23.50;18.67;;;;;;;3.16;100.00;99031.13;15284556;19;20011;-48
2024/03/06 08:03:16;;;;;;;25.25;17.83;;;;;;;3.24;100.00;99031.47;15286036;19;20032;-51
2024/03/06 08:08:47;;;;;;;22.27;18.42;;;;;;;3.34;100.00;99037.06;15283396;19;20018;-50
2024/03/06 08:14:11;;;;;;;23.63;19.42;;;;;;;3.45;100.00;99046.16;15284549;19;20082;-48
2024/03/06 08:19:37;;;;;;;24.95;20.27;;;;;;;3.57;100.00;99055.13;15300286;19;20029;-48
2024/03/06 08:25:04;;;;;;;23.63;19.15;;;;;;;3.66;100.00;99060.72;15301536;19;20019;-47
2024/03/06 08:30:30;;;;;;;25.58;20.08;;;;;;;3.73;100.00;99066.50;15296837;19;20019;-48
2024/03/06 08:35:54;;;;;;;22.95;18.63;;;;;;;3.76;100.00;99071.66;15299146;19;20038;-47
2024/03/06 08:41:21;;;;;;;21.33;18.15;;;;;;;3.82;100.00;99083.72;15295102;19;20025;-51
2024/03/06 08:46:46;;;;;;;23.85;17.20;;;;;;;3.93;100.00;99093.63;15293547;19;20015;-49
2024/03/06 08:52:11;;;;;;;20.90;17.17;;;;;;;4.03;100.00;99093.88;15295918;19;20021;-49
2024/03/06 08:57:38;;;;;;;21.05;17.25;;;;;;;4.13;100.00;99105.63;15296066;19;20021;-48
2024/03/06 09:03:03;;;;;;;21.88;17.98;;;;;;;4.19;100.00;99101.69;15297445;19;20024;-48
2024/03/06 09:08:27;;;;;;;21.25;18.45;;;;;;;4.25;100.00;99104.81;15294854;19;20019;-49
2024/03/06 09:13:55;;;;;;;21.45;17.35;;;;;;;4.34;100.00;99114.00;15295920;19;20598;-47
2024/03/06 09:19:22;;;;;;;24.83;18.88;;;;;;;4.45;100.00;99111.47;15301950;19;20011;-47
2024/03/06 09:24:48;;;;;;;21.92;18.98;;;;;;;4.57;100.00;99122.25;15292839;19;20020;-49
2024/03/06 09:30:16;;;;;;;26.10;17.52;;;;;;;4.70;100.00;99123.09;15293243;19;20479;-49
2024/03/06 09:35:45;;;;;;;23.48;18.83;;;;;;;4.84;100.00;99127.47;15295064;19;20021;-48
2024/03/06 09:41:09;;;;;;;19.98;17.65;;;;;;;4.98;100.00;99131.00;15290180;19;20402;-50
2024/03/06 09:46:37;;;;;;;23.13;18.33;;;;;;;5.09;100.00;99126.59;15289975;19;20024;-51
2024/03/06 09:52:03;;;;;;;22.58;18.80;;;;;;;5.26;100.00;99132.56;15295763;19;20528;-49
2024/03/06 09:57:29;;;;;;;23.88;18.80;;;;;;;5.40;100.00;99134.22;15294523;19;20106;-51
2024/03/06 10:03:05;;;;;;;24.65;20.10;;;;;;;5.58;100.00;99136.56;15292184;19;20020;-49
2024/03/06 10:08:30;;;;;;;24.98;18.92;;;;;;;5.73;100.00;99139.91;15290773;19;20081;-49
2024/03/06 10:13:54;;;;;;;25.17;20.77;;;;;;;5.84;100.00;99132.78;15291892;19;20019;-50
2024/03/06 10:19:22;;;;;;;25.00;20.40;;;;;;;6.00;100.00;99137.88;15296620;19;20015;-54
2024/03/06 10:24:48;;;;;;;22.55;18.73;;;;;;;6.13;100.00;99132.47;15293556;19;20590;-48
2024/03/06 10:30:15;;;;;;;23.40;18.33;;;;;;;6.24;100.00;99141.53;15294562;19;20100;-49
2024/03/06 10:35:43;;;;;;;22.20;18.65;;;;;;;6.37;100.00;99123.56;15292843;19;20506;-49
2024/03/06 10:41:13;;;;;;;20.10;17.38;;;;;;;6.52;100.00;99132.25;15285666;19;20543;-52
2024/03/06 10:46:39;;;;;;;22.67;17.00;;;;;;;6.66;100.00;99127.66;15286240;19;20011;-51
2024/03/06 10:52:08;;;;;;;19.77;16.92;;;;;;;6.82;100.00;99113.91;15286468;19;20020;-51
2024/03/06 10:57:33;;;;;;;23.30;17.48;;;;;;;6.96;100.00;99102.09;15286788;19;20025;-49
2024/03/06 11:03:00;;;;;;;21.77;16.00;;;;;;;7.05;100.00;99096.88;15288591;19;20393;-49
2024/03/06 11:08:28;;;;;;;20.60;14.73;;;;;;;7.12;100.00;99091.88;15030798;19;5002581;-49
2024/03/06 11:13:57;;;;;;;17.92;13.55;;;;;;;7.25;100.00;99086.38;15288030;19;20025;-49
2024/03/06 11:19:21;;;;;;;18.02;14.30;;;;;;;7.32;100.00;99071.53;15293115;19;20010;-49
2024/03/06 11:24:48;;;;;;;16.00;12.43;;;;;;;7.44;100.00;99063.44;15289558;19;20085;-49
2024/03/06 11:30:16;;;;;;;21.00;13.70;;;;;;;7.48;100.00;99049.66;15280632;19;20020;-49
2024/03/06 11:35:44;;;;;;;19.00;12.93;;;;;;;7.57;100.00;99042.69;15290239;19;20085;-49
2024/03/06 11:41:13;;;;;;;16.38;12.25;;;;;;;7.70;100.00;99040.69;15283287;19;20026;-49
2024/03/06 11:46:45;;;;;;;14.02;10.95;;;;;;;7.78;100.00;99028.47;15282001;19;20111;-49
2024/03/06 11:52:12;;;;;;;17.02;11.43;;;;;;;7.85;100.00;99030.53;15291002;19;20347;-48
2024/03/06 11:57:42;;;;;;;16.85;11.27;;;;;;;7.92;100.00;99019.25;15299121;19;20018;-49
2024/03/06 12:03:07;;;;;;;15.13;10.07;;;;;;;8.04;100.00;99022.75;15295961;19;20017;-49
2024/03/06 12:08:32;;;;;;;14.00;10.07;;;;;;;8.11;100.00;99015.88;15299448;19;20082;-49
2024/03/06 12:14:01;;;;;;;12.80;9.95;;;;;;;8.24;100.00;99003.09;15300348;19;20029;-49
2024/03/06 12:19:28;;;;;;;12.60;11.00;;;;;;;8.31;100.00;98995.38;15305365;19;20653;-49
2024/03/06 12:24:52;;;;;;;13.23;10.48;;;;;;;8.40;100.00;99007.16;15300076;19;20023;-49
2024/03/06 12:30:22;;;;;;;14.18;10.70;;;;;;;8.67;100.00;99006.63;15298000;19;20021;-50
2024/03/06 12:35:48;;;;;;;12.98;11.57;;;;;;;8.80;100.00;99001.00;15295968;19;20022;-51
2024/03/06 12:41:19;;;;;;;12.85;11.48;;;;;;;8.82;100.00;99004.41;15296121;19;20414;-51
2024/03/06 12:46:46;;;;;;;15.00;11.43;;;;;;;8.86;100.00;99000.47;15292974;19;20018;-50
2024/03/06 12:52:11;;;;;;;14.00;11.40;;;;;;;9.09;100.00;98994.88;15295811;19;20021;-49
2024/03/06 12:57:36;;;;;;;14.10;11.50;;;;;;;9.12;100.00;98991.88;15290891;19;20021;-49
2024/03/06 13:03:03;;;;;;;12.98;10.80;;;;;;;9.10;100.00;98993.91;15040626;19;5001058;-50
2024/03/06 13:08:28;;;;;;;14.02;11.00;;;;;;;9.19;100.00;98986.81;15295347;19;20022;-48
2024/03/06 13:13:53;;;;;;;13.07;9.38;;;;;;;9.34;100.00;98981.91;15295332;19;20014;-51
2024/03/06 13:19:22;;;;;;;14.75;10.00;;;;;;;9.33;100.00;98972.13;15301787;19;20025;-49
2024/03/06 13:24:46;;;;;;;12.48;9.80;;;;;;;9.65;100.00;98960.25;15297611;19;20619;-49
2024/03/06 13:30:12;;;;;;;10.45;9.15;;;;;;;9.81;100.00;98959.69;15292613;19;20074;-51
2024/03/06 13:35:39;;;;;;;10.73;9.35;;;;;;;9.78;100.00;98958.13;15295397;19;20490;-51
2024/03/06 13:41:05;;;;;;;14.50;9.50;;;;;;;9.98;100.00;98960.78;15289221;19;20396;-49
2024/03/06 13:46:29;;;;;;;11.43;9.60;;;;;;;9.78;100.00;98957.25;15292717;19;20582;-49
2024/03/06 13:51:56;;;;;;;12.55;9.43;;;;;;;9.86;100.00;98958.25;15291208;19;20349;-49
2024/03/06 13:57:22;;;;;;;10.10;8.45;;;;;;;9.72;100.00;98956.00;15285488;19;20022;-51
2024/03/06 14:02:47;;;;;;;10.73;8.95;;;;;;;9.92;100.00;98967.59;15296201;19;20422;-49
2024/03/06 14:08:16;;;;;;;11.05;9.13;;;;;;;9.44;100.00;98966.63;15290647;19;20086;-50
2024/03/06 14:13:42;;;;;;;11.07;9.35;;;;;;;9.14;100.00;98979.16;15285088;19;20086;-52
2024/03/06 14:19:08;;;;;;;16.08;9.60;;;;;;;8.96;100.00;98984.34;15293187;19;20022;-49
2024/03/06 14:24:35;;;;;;;11.93;9.77;;;;;;;8.91;100.00;98974.03;15295117;19;20074;-51
2024/03/06 14:30:02;;;;;;;13.38;9.90;;;;;;;9.47;100.00;98960.94;15296377;19;20014;-49
2024/03/06 14:35:27;;;;;;;12.80;9.30;;;;;;;9.46;100.00;98971.84;15293094;19;20024;-51
2024/03/06 14:40:55;;;;;;;12.75;9.70;;;;;;;9.17;100.00;98972.69;15292365;19;20031;-48
2024/03/06 14:46:20;;;;;;;11.32;10.13;;;;;;;8.81;100.00;98978.53;15287890;19;20014;-50
2024/03/06 14:51:46;;;;;;;14.38;9.85;;;;;;;8.67;100.00;98982.44;15295242;19;20041;-50
2024/03/06 14:57:14;;;;;;;13.40;10.40;;;;;;;8.32;100.00;98976.44;15284743;19;20025;-49
2024/03/06 15:02:40;;;;;;;14.88;11.40;;;;;;;8.13;100.00;98987.91;15292648;19;20086;-48
2024/03/06 15:08:12;;;;;;;14.63;12.40;;;;;;;8.10;100.00;98992.69;15032845;19;5001396;-47
2024/03/06 15:13:40;;;;;;;13.88;11.40;;;;;;;7.91;100.00;98994.28;15284320;19;20077;-52
2024/03/06 15:19:04;;;;;;;13.82;12.30;;;;;;;7.67;100.00;98998.03;15282863;19;20021;-47
2024/03/06 15:24:29;;;;;;;13.80;12.35;;;;;;;7.61;100.00;98997.72;15280106;19;20022;-47
2024/03/06 15:29:56;;;;;;;14.45;10.98;;;;;;;7.83;100.00;99004.78;15286596;19;20486;-48
2024/03/06 15:35:21;;;;;;;12.00;10.80;;;;;;;7.90;100.00;99003.31;15291494;19;20035;-48
2024/03/06 15:40:50;;;;;;;10.50;9.40;;;;;;;7.62;100.00;99002.09;15288896;19;20503;-48
2024/03/06 15:46:18;;;;;;;10.77;9.05;;;;;;;7.41;100.00;99000.19;15284107;19;20024;-47
2024/03/06 15:51:42;;;;;;;13.93;9.80;;;;;;;7.31;100.00;99004.63;15285520;19;20050;-47
2024/03/06 15:57:07;;;;;;;13.15;9.30;;;;;;;7.52;100.00;98999.31;15285561;19;20020;-46
2024/03/06 16:02:34;;;;;;;12.55;9.35;;;;;;;7.95;100.00;98987.66;15290559;19;20370;-50
2024/03/06 16:08:03;;;;;;;10.15;9.00;;;;;;;8.07;100.00;98998.31;15287329;19;20081;-48
2024/03/06 16:13:27;;;;;;;10.63;9.52;;;;;;;7.92;100.00;98998.66;15291661;19;20014;-46
2024/03/06 16:18:55;;;;;;;12.43;9.30;;;;;;;7.71;100.00;99002.16;15285710;19;20025;-48
2024/03/06 16:24:19;;;;;;;11.25;10.07;;;;;;;7.54;100.00;99000.88;15284991;19;20025;-48
2024/03/06 16:29:44;;;;;;;11.10;9.95;;;;;;;7.24;100.00;99017.66;15285687;19;20073;-48
2024/03/06 16:35:12;;;;;;;11.93;9.85;;;;;;;6.99;100.00;99021.50;15260307;19;20036;-49
2024/03/06 16:40:46;;;;;;;12.43;9.77;;;;;;;6.73;100.00;99032.47;15277261;19;20387;-55
2024/03/06 16:46:11;;;;;;;14.68;9.63;;;;;;;6.48;100.00;99035.25;15301874;19;20016;-54
2024/03/06 16:51:38;;;;;;;11.10;9.70;;;;;;;6.31;100.00;99043.72;15297089;19;20018;-52
2024/03/06 16:57:03;;;;;;;12.27;9.25;;;;;;;6.07;100.00;99052.69;15301200;19;20010;-56
2024/03/06 17:02:27;;;;;;;15.35;10.38;;;;;;;5.88;100.00;99055.84;15299539;19;20025;-55
2024/03/06 17:07:55;;;;;;;11.85;9.55;;;;;;;5.68;100.00;99071.59;15296398;19;20485;-56
2024/03/06 17:13:19;;;;;;;10.73;9.05;;;;;;;5.55;100.00;99073.44;15297418;19;20093;-55
2024/03/06 17:18:44;;;;;;;12.77;10.68;;;;;;;5.39;100.00;99066.59;15291727;19;20379;-55
2024/03/06 17:24:12;;;;;;;11.35;9.60;;;;;;;5.27;100.00;99070.16;15297708;19;20463;-52
2024/03/06 17:29:37;;;;;;;10.80;8.46;;;;;;;5.08;100.00;99075.97;15041602;19;5002116;-54
2024/03/06 17:35:03;;;;;;;10.27;9.00;;;;;;;4.94;100.00;99085.81;15297986;19;20403;-54
2024/03/06 17:40:37;;;;;;;9.48;8.48;;;;;;;4.80;100.00;99083.25;15286647;19;20029;-56
2024/03/06 17:46:02;;;;;;;9.80;8.80;;;;;;;4.71;100.00;99090.09;15300968;19;20082;-55
2024/03/06 17:51:26;;;;;;;10.48;8.43;;;;;;;4.67;100.00;99101.09;15283977;19;20010;-56
2024/03/06 17:56:58;;;;;;;12.27;8.65;;;;;;;4.59;100.00;99099.81;15285648;19;20022;-56
2024/03/06 18:02:22;;;;;;;9.93;8.55;;;;;;;4.54;100.00;99099.28;15302999;19;20090;-55
2024/03/06 18:07:47;;;;;;;9.85;8.30;;;;;;;4.47;100.00;99100.66;15289126;19;20018;-55
2024/03/06 18:13:14;;;;;;;11.30;8.05;;;;;;;4.41;100.00;99103.78;15298725;19;20021;-54
2024/03/06 18:18:40;;;;;;;10.65;8.88;;;;;;;4.35;100.00;99114.84;15290390;19;20016;-52
2024/03/06 18:24:07;;;;;;;12.75;8.98;;;;;;;4.27;100.00;99110.03;15299116;19;20017;-53
2024/03/06 18:29:35;;;;;;;11.30;8.80;;;;;;;4.14;100.00;99110.00;15294457;19;20092;-53
2024/03/06 18:35:01;;;;;;;9.38;8.38;;;;;;;4.05;100.00;99118.63;15298712;19;20078;-52
2024/03/06 18:40:26;;;;;;;9.82;7.22;;;;;;;3.93;100.00;99118.50;15288710;19;20015;-55
2024/03/06 18:45:54;;;;;;;9.93;6.97;;;;;;;3.86;100.00;99133.16;15296482;19;20029;-53
2024/03/06 18:51:19;;;;;;;7.00;5.80;;;;;;;3.84;100.00;99141.28;15286212;19;20022;-53
2024/03/06 18:56:44;;;;;;;6.57;5.97;;;;;;;3.86;100.00;99146.50;15295696;19;20086;-54
2024/03/06 19:02:12;;;;;;;6.03;5.43;;;;;;;3.89;100.00;99153.44;15288315;19;20477;-54
2024/03/06 19:07:37;;;;;;;6.30;5.07;;;;;;;3.91;100.00;99154.19;15292878;19;20018;-55
2024/03/06 19:13:04;;;;;;;5.53;4.88;;;;;;;3.93;100.00;99163.81;15293915;19;20074;-56
2024/03/06 19:18:34;;;;;;;5.30;4.80;;;;;;;3.96;100.00;99160.94;15292153;19;20022;-54
2024/03/06 19:24:00;;;;;;;9.68;4.88;;;;;;;4.00;100.00;99166.91;15295421;19;20014;-55
2024/03/06 19:29:27;;;;;;;5.05;4.45;;;;;;;4.05;100.00;99171.97;15291383;19;20015;-55
2024/03/06 19:34:57;;;;;;;5.03;4.40;;;;;;;4.06;100.00;99169.19;15285584;19;20054;-54
2024/03/06 19:40:24;;;;;;;5.00;4.50;;;;;;;4.10;100.00;99177.84;15283603;19;20063;-51
2024/03/06 19:45:49;;;;;;;5.68;4.65;;;;;;;4.10;100.00;99180.50;15288600;19;20010;-55
2024/03/06 19:51:17;;;;;;;4.78;4.35;;;;;;;4.11;100.00;99176.88;15283210;19;20364;-55
2024/03/06 19:56:43;;;;;;;5.63;5.03;;;;;;;4.15;100.00;99179.25;15292275;19;20017;-55
2024/03/06 20:02:10;;;;;;;5.03;4.50;;;;;;;4.23;100.00;99184.06;15288623;19;20022;-51
2024/03/06 20:07:33;;;;;;;7.28;4.90;;;;;;;4.29;100.00;99191.66;15282816;19;20032;-51
2024/03/06 20:13:01;;;;;;;6.72;4.70;;;;;;;4.33;100.00;99187.00;15291670;19;20019;-49
2024/03/06 20:18:26;;;;;;;5.22;4.72;;;;;;;4.36;100.00;99183.25;15298403;19;20015;-50
2024/03/06 20:23:49;;;;;;;6.18;4.95;;;;;;;4.40;100.00;99187.44;15306458;19;20011;-50
2024/03/06 20:29:07;;;;;;;5.72;4.90;;;;;;;4.40;100.00;99182.94;15301509;19;20110;-52
2024/03/06 20:34:32;;;;;;;4.72;4.25;;;;;;;4.45;100.00;99177.28;15300733;19;20026;-51
2024/03/06 20:39:59;;;;;;;5.57;4.90;;;;;;;4.48;100.00;99175.25;15287612;19;20032;-50
2024/03/06 20:45:24;;;;;;;5.05;4.55;;;;;;;4.51;100.00;99176.91;15300589;19;20027;-52
2024/03/06 20:50:49;;;;;;;5.28;4.50;;;;;;;4.53;100.00;99190.13;15288741;19;20501;-50
2024/03/06 20:56:17;;;;;;;5.25;4.72;;;;;;;4.53;100.00;99184.78;15301074;19;20029;-50
2024/03/06 21:01:41;;;;;;;6.63;4.60;;;;;;;4.53;100.00;99182.94;15289310;19;20077;-51
2024/03/06 21:07:08;;;;;;;5.18;4.68;;;;;;;4.54;100.00;99190.00;15293416;19;20015;-50
2024/03/06 21:12:35;;;;;;;4.60;4.20;;;;;;;4.57;100.00;99187.13;15294390;19;20018;-52
2024/03/06 21:18:00;;;;;;;4.97;4.47;;;;;;;4.61;100.00;99191.31;15293303;19;20024;-51
2024/03/06 21:23:26;;;;;;;4.80;4.30;;;;;;;4.68;100.00;99190.88;15299784;19;20020;-50
2024/03/06 21:28:54;;;;;;;5.65;4.75;;;;;;;4.65;100.00;99193.75;15297661;19;20021;-50
2024/03/06 21:34:18;;;;;;;4.57;4.10;;;;;;;4.62;100.00;99193.03;15297263;19;20485;-50
2024/03/06 21:39:43;;;;;;;5.47;4.22;;;;;;;4.67;100.00;99187.38;15286719;19;20018;-51
2024/03/06 21:45:11;;;;;;;4.97;4.47;;;;;;;4.70;100.00;99202.31;15293954;19;20018;-50
2024/03/06 21:50:36;;;;;;;4.82;4.32;;;;;;;4.76;100.00;99193.91;15286718;19;20014;-50
2024/03/06 21:56:01;;;;;;;5.88;4.93;;;;;;;4.68;100.00;99194.44;15296037;19;20017;-51
2024/03/06 22:01:29;;;;;;;5.88;4.50;;;;;;;4.58;100.00;99191.50;15285624;19;20029;-52
2024/03/06 22:06:53;;;;;;;6.47;5.88;;;;;;;4.56;100.00;99198.78;15297894;19;20479;-50
2024/03/06 22:12:18;;;;;;;9.02;7.22;;;;;;;4.54;100.00;99192.66;15291476;19;20555;-50
2024/03/06 22:17:45;;;;;;;7.22;6.53;;;;;;;4.49;100.00;99184.13;15288786;19;20086;-52
2024/03/06 22:23:11;;;;;;;6.93;6.20;;;;;;;4.43;100.00;99187.22;15297052;19;20022;-52
2024/03/06 22:28:35;;;;;;;8.10;7.30;;;;;;;4.40;100.00;99188.28;15292436;19;20015;-51
2024/03/06 22:34:05;;;;;;;6.70;6.00;;;;;;;4.39;100.00;99191.06;15294822;19;20033;-50
2024/03/06 22:39:28;;;;;;;8.82;6.50;;;;;;;4.39;100.00;99196.41;15295723;19;20017;-52
2024/03/06 22:44:53;;;;;;;6.28;5.65;;;;;;;4.39;100.00;99191.06;15295418;19;20021;-52
2024/03/06 22:50:20;;;;;;;7.55;6.10;;;;;;;4.38;100.00;99195.53;15284622;19;20020;-51
2024/03/06 22:55:45;;;;;;;7.70;6.18;;;;;;;4.39;100.00;99180.38;15295189;19;20018;-53
2024/03/06 23:01:09;;;;;;;6.07;5.47;;;;;;;4.39;100.00;99180.38;15281548;19;20020;-51
2024/03/06 23:06:37;;;;;;;6.97;5.97;;;;;;;4.37;100.00;99183.13;15295794;19;20409;-52
2024/03/06 23:12:02;;;;;;;9.38;5.88;;;;;;;4.35;100.00;99184.22;15286365;19;20018;-49
2024/03/06 23:17:27;;;;;;;6.63;6.03;;;;;;;4.34;100.00;99185.16;15286206;19;20359;-51
2024/03/06 23:22:54;;;;;;;7.97;6.03;;;;;;;4.34;100.00;99187.84;15290204;19;20081;-53
2024/03/06 23:28:19;;;;;;;7.82;6.30;;;;;;;4.33;100.00;99189.66;15289138;19;20018;-52
2024/03/06 23:33:43;;;;;;;7.50;6.30;;;;;;;4.30;100.00;99188.03;15288477;19;20489;-52
2024/03/06 23:39:12;;;;;;;9.73;6.20;;;;;;;4.30;100.00;99187.19;15281488;19;20023;-52
2024/03/06 23:44:36;;;;;;;6.85;6.18;;;;;;;4.29;100.00;99191.66;15293366;19;20354;-50
2024/03/06 23:50:01;;;;;;;6.97;6.20;;;;;;;4.31;100.00;99197.75;15282358;19;20098;-50
2024/03/06 23:55:29;;;;;;;7.03;6.30;;;;;;;4.29;100.00;99194.31;15291409;19;20753;-50
